Time;durP1;ratioP1;P1;durP2;ratioP2;P2;SDS_P1;SDS_P2;PMS_P1;PMS_P2;Temp;Humidity;BMP_temperature;BMP_pressure;BME280_temperature;BME280_humidity;BME280_pressure;Samples;Min_cycle;Max_cycle;Signal;HPM_P1;HPM_P2
2023/09/06 01:07:18;;;;;;;7.03;6.37;;;16.70;99.90;;;;;;4697880;30;21386;-81
2023/09/06 01:10:10;;;;;;;9.93;9.03;;;16.70;99.90;;;;;;4824285;29;20460;-80
2023/09/06 04:54:00;;;;;;;9.10;8.30;;;14.20;99.90;;;;;;4762320;29;20863;-79
2023/09/06 04:56:52;;;;;;;9.93;9.13;;;14.20;99.90;;;;;;4765122;30;20462;-80
2023/09/06 04:59:33;;;;;;;9.53;8.63;;;14.20;99.90;;;;;;4919816;29;20455;-80
2023/09/06 05:02:10;;;;;;;9.77;8.80;;;14.10;99.90;;;;;;4988154;28;20546;-81
2023/09/06 05:07:48;;;;;;;9.37;8.37;;;14.10;99.90;;;;;;5021303;28;20455;-80
2023/09/06 05:10:57;;;;;;;9.80;8.90;;;14.10;99.90;;;;;;5022141;28;20457;-82
2023/09/06 05:13:55;;;;;;;9.93;9.03;;;14.20;99.90;;;;;;5021787;28;20455;-79
2023/09/06 05:49:04;;;;;;;11.93;9.70;;;14.60;99.90;;;;;;4903946;29;20476;-81
2023/09/06 05:51:36;;;;;;;9.43;8.53;;;14.70;99.90;;;;;;4895986;29;20453;-79
2023/09/06 05:54:11;;;;;;;14.30;9.10;;;14.80;99.90;;;;;;4965170;28;20462;-78
2023/09/06 05:56:59;;;;;;;10.07;8.03;;;14.80;99.90;;;;;;4969486;28;20442;-81
2023/09/06 05:59:29;;;;;;;9.20;8.40;;;14.90;99.90;;;;;;4968829;28;20462;-79
2023/09/06 06:02:10;;;;;;;9.83;8.93;;;15.00;99.90;;;;;;4963359;29;20562;-80
2023/09/06 06:04:46;;;;;;;12.00;9.97;;;15.00;99.90;;;;;;4964486;28;20445;-80
2023/09/06 06:07:26;;;;;;;10.30;9.30;;;15.10;99.90;;;;;;4969646;28;20527;-80
2023/09/06 06:10:05;;;;;;;11.73;8.63;;;15.20;99.90;;;;;;4966475;28;20831;-79
2023/09/06 06:12:44;;;;;;;10.00;8.93;;;15.40;99.90;;;;;;4971809;28;20481;-81
2023/09/06 06:15:20;;;;;;;9.17;8.30;;;15.50;99.90;;;;;;4969575;28;20490;-80
2023/09/06 06:17:49;;;;;;;9.13;8.33;;;15.60;99.90;;;;;;4969882;28;20442;-78
2023/09/06 06:23:10;;;;;;;9.83;8.43;;;15.70;99.90;;;;;;4981612;28;20444;-82
2023/09/06 06:25:44;;;;;;;9.60;8.70;;;15.80;99.90;;;;;;5010139;28;20453;-80
2023/09/06 06:28:23;;;;;;;10.07;8.90;;;15.90;99.90;;;;;;5011222;28;20454;-81
2023/09/06 06:30:56;;;;;;;10.97;9.87;;;15.90;99.90;;;;;;5009994;28;20532;-80
2023/09/06 06:33:27;;;;;;;12.77;10.60;;;16.10;99.90;;;;;;5011240;28;20451;-79
2023/09/06 06:35:59;;;;;;;10.67;9.67;;;16.10;99.90;;;;;;5009308;28;20440;-79
2023/09/06 06:38:39;;;;;;;11.23;10.03;;;16.20;99.90;;;;;;5009219;28;20496;-79
2023/09/06 06:41:22;;;;;;;11.70;9.97;;;16.30;99.90;;;;;;5011600;28;20483;-78
2023/09/06 06:44:04;;;;;;;13.57;10.73;;;16.00;99.90;;;;;;5002901;28;20472;-80
2023/09/06 06:46:35;;;;;;;11.87;10.53;;;16.30;99.90;;;;;;4999674;28;20464;-80
2023/09/06 06:49:08;;;;;;;11.57;10.47;;;16.40;99.90;;;;;;5000903;28;20551;-80
2023/09/06 06:51:44;;;;;;;10.00;9.00;;;16.50;99.90;;;;;;5001460;28;20518;-79
2023/09/06 06:54:29;;;;;;;12.73;10.23;;;16.60;99.90;;;;;;4999924;28;20536;-82
2023/09/06 06:56:57;;;;;;;11.10;9.80;;;16.80;99.90;;;;;;4999775;28;20538;-81
2023/09/06 06:59:29;;;;;;;9.57;8.67;;;16.90;99.90;;;;;;5002583;28;20436;-80
2023/09/06 07:01:56;;;;;;;10.47;8.57;;;17.00;99.90;;;;;;5003455;28;20519;-79
2023/09/06 07:04:27;;;;;;;9.47;8.47;;;17.10;99.90;;;;;;5002895;28;20460;-81
2023/09/06 07:06:54;;;;;;;9.53;8.77;;;17.00;99.90;;;;;;5004303;28;20479;-80
2023/09/06 07:09:26;;;;;;;10.17;8.73;;;17.00;99.90;;;;;;5002537;28;20451;-79
2023/09/06 07:12:05;;;;;;;8.70;7.80;;;17.20;99.90;;;;;;5007005;28;20467;-81
2023/09/06 07:17:55;;;;;;;8.80;7.90;;;17.50;99.90;;;;;;5006179;28;20460;-81
2023/09/06 07:20:29;;;;;;;9.80;7.60;;;17.50;99.90;;;;;;5004915;28;20449;-81
2023/09/06 07:22:58;;;;;;;8.33;7.63;;;17.50;99.90;;;;;;5001355;28;20487;-79
2023/09/06 07:25:40;;;;;;;8.53;7.73;;;17.60;99.90;;;;;;4986942;28;20445;-82
2023/09/06 07:28:17;;;;;;;8.00;7.37;;;17.60;99.90;;;;;;4987840;28;20461;-82
2023/09/06 07:31:12;;;;;;;8.73;7.70;;;17.70;99.90;;;;;;4986214;28;20449;-80
2023/09/06 07:33:45;;;;;;;7.73;7.03;;;17.90;99.90;;;;;;4989248;28;20436;-79
2023/09/06 07:36:28;;;;;;;7.70;7.00;;;18.10;99.90;;;;;;4988114;28;20452;-81
2023/09/06 07:39:01;;;;;;;8.63;7.83;;;18.10;99.90;;;;;;4989503;28;20450;-80
2023/09/06 07:41:34;;;;;;;8.10;7.40;;;18.20;99.90;;;;;;4984898;28;20589;-81
2023/09/06 07:44:10;;;;;;;8.90;8.00;;;18.40;99.90;;;;;;4986319;28;20481;-80
2023/09/06 07:46:48;;;;;;;8.30;7.57;;;18.40;99.90;;;;;;4988471;28;20476;-79
2023/09/06 07:49:19;;;;;;;9.07;8.37;;;18.60;99.90;;;;;;4985579;28;20457;-79
2023/09/06 07:52:10;;;;;;;8.60;7.70;;;18.70;99.90;;;;;;4987850;28;20481;-81
2023/09/06 07:55:02;;;;;;;9.80;8.80;;;18.80;99.90;;;;;;4985521;28;20449;-80
2023/09/06 07:57:45;;;;;;;8.33;7.50;;;18.90;99.90;;;;;;4988715;28;20496;-81
2023/09/06 08:00:30;;;;;;;9.23;8.10;;;19.10;99.90;;;;;;4987782;28;20545;-79
2023/09/06 08:03:15;;;;;;;7.80;7.10;;;19.30;99.90;;;;;;4961897;29;20486;-81
2023/09/06 08:06:19;;;;;;;8.50;7.70;;;19.40;99.90;;;;;;4964550;28;20554;-81
2023/09/06 08:09:14;;;;;;;7.63;6.97;;;19.70;99.90;;;;;;4965870;28;20579;-81
2023/09/06 08:18:31;;;;;;;8.67;7.70;;;20.20;99.90;;;;;;4899457;29;20510;-81
2023/09/06 08:21:07;;;;;;;9.30;8.37;;;20.30;99.90;;;;;;4869333;29;20454;-81
2023/09/06 08:23:50;;;;;;;7.73;7.13;;;20.60;99.90;;;;;;4877009;29;20584;-80
2023/09/06 08:26:23;;;;;;;7.43;6.83;;;20.80;99.90;;;;;;4942045;29;20465;-80
2023/09/06 08:28:56;;;;;;;7.80;7.10;;;20.90;99.90;;;;;;4967885;28;20568;-81
2023/09/06 08:31:27;;;;;;;7.93;7.23;;;21.20;99.90;;;;;;4967953;28;20470;-80
2023/09/06 08:34:03;;;;;;;10.80;7.70;;;21.50;99.90;;;;;;4968121;28;20454;-79
2023/09/06 08:36:32;;;;;;;9.60;7.77;;;21.40;99.90;;;;;;4967815;28;20438;-80
2023/09/06 08:39:11;;;;;;;8.60;6.90;;;21.50;99.90;;;;;;4967403;28;20530;-80
2023/09/06 08:41:52;;;;;;;11.23;6.87;;;21.70;99.90;;;;;;4965471;29;20501;-79
2023/09/06 08:44:47;;;;;;;8.37;7.47;;;21.80;99.90;;;;;;4965986;28;20477;-80
2023/09/06 08:47:48;;;;;;;7.00;6.40;;;22.10;99.90;;;;;;4951497;28;20854;-79
2023/09/06 08:50:35;;;;;;;8.13;7.20;;;22.10;99.90;;;;;;4963193;28;20540;-80
2023/09/06 08:53:33;;;;;;;8.17;6.83;;;22.40;99.90;;;;;;4962260;28;20458;-79
2023/09/06 08:56:15;;;;;;;6.90;6.20;;;22.70;99.90;;;;;;4961220;28;20485;-81
2023/09/06 08:58:52;;;;;;;7.80;7.07;;;23.00;99.90;;;;;;4958284;28;20481;-78
2023/09/06 09:01:47;;;;;;;7.90;6.50;;;22.90;99.90;;;;;;4964776;28;20485;-77
2023/09/06 09:05:00;;;;;;;7.47;6.17;;;23.20;99.90;;;;;;4970277;28;20426;-80
2023/09/06 09:07:37;;;;;;;6.67;6.17;;;23.50;99.90;;;;;;4952692;28;20512;-84
2023/09/06 09:10:10;;;;;;;6.47;5.90;;;23.80;99.90;;;;;;4973696;28;20468;-79
2023/09/06 09:12:49;;;;;;;6.40;5.80;;;24.00;99.90;;;;;;4973884;28;20893;-79
2023/09/06 09:15:31;;;;;;;6.20;5.67;;;24.20;99.90;;;;;;4972943;29;20442;-80
2023/09/06 09:18:15;;;;;;;6.50;5.90;;;24.10;99.90;;;;;;4971227;28;20844;-81
2023/09/06 09:20:58;;;;;;;6.67;6.17;;;24.30;99.90;;;;;;4967867;28;20458;-80
2023/09/06 09:23:34;;;;;;;6.80;6.20;;;24.50;99.90;;;;;;4981057;28;20476;-80
2023/09/06 09:26:14;;;;;;;6.07;5.57;;;24.90;99.90;;;;;;5004926;28;20937;-80
2023/09/06 09:28:47;;;;;;;7.00;6.30;;;25.10;99.90;;;;;;5001986;28;20534;-80
2023/09/06 09:31:18;;;;;;;8.40;6.10;;;25.10;99.90;;;;;;5000339;28;20991;-82
2023/09/06 09:34:09;;;;;;;6.33;5.73;;;25.30;99.90;;;;;;5000344;28;20988;-79
2023/09/06 09:37:05;;;;;;;6.97;5.80;;;25.60;99.90;;;;;;4999576;28;21039;-80
2023/09/06 09:39:58;;;;;;;6.70;6.10;;;25.80;99.90;;;;;;5004517;28;20884;-80
2023/09/06 09:43:00;;;;;;;6.90;6.20;;;26.10;99.90;;;;;;5007829;28;20925;-79
2023/09/06 09:45:53;;;;;;;6.43;5.93;;;26.10;99.90;;;;;;5010718;28;20444;-80
2023/09/06 09:48:43;;;;;;;8.90;6.60;;;25.50;99.90;;;;;;5010112;28;20535;-81
2023/09/06 09:57:38;;;;;;;6.17;5.77;;;26.10;99.90;;;;;;5002376;28;20464;-81
2023/09/06 10:00:27;;;;;;;6.90;6.33;;;26.40;99.90;;;;;;5006762;28;20452;-81
2023/09/06 10:03:16;;;;;;;6.40;5.90;;;26.70;99.90;;;;;;5003648;28;20484;-80
2023/09/06 10:06:04;;;;;;;6.90;6.30;;;27.00;99.90;;;;;;5001833;28;20464;-81
2023/09/06 10:08:39;;;;;;;6.30;5.70;;;27.20;99.90;;;;;;5003798;28;20551;-80
2023/09/06 10:11:28;;;;;;;7.23;6.63;;;27.50;99.90;;;;;;5002194;28;20495;-81
2023/09/06 10:14:27;;;;;;;6.00;5.57;;;27.30;99.90;;;;;;5003337;28;20452;-79
2023/09/06 10:17:14;;;;;;;5.90;5.40;;;27.60;99.90;;;;;;5008863;28;20486;-82
2023/09/06 10:19:56;;;;;;;10.50;9.50;;;28.00;99.90;;;;;;5006835;28;20456;-80
2023/09/06 10:22:39;;;;;;;11.00;7.60;;;28.20;99.90;;;;;;4997484;28;20600;-83
2023/09/06 10:25:20;;;;;;;9.87;8.97;;;28.30;99.90;;;;;;4995930;28;20457;-82
2023/09/06 10:27:55;;;;;;;7.00;6.30;;;28.50;99.90;;;;;;4995796;28;20551;-82
2023/09/06 10:30:43;;;;;;;6.90;5.83;;;28.50;99.90;;;;;;4996229;28;20436;-82
2023/09/06 10:34:13;;;;;;;;;;;;;;;;;;;;;
2023/09/06 10:40:12;;;;;;;5.80;5.40;;;28.10;99.90;;;;;;4990172;28;20923;-79
2023/09/06 10:43:03;;;;;;;5.63;5.23;;;28.10;99.90;;;;;;4996966;28;20484;-80
2023/09/06 10:49:23;;;;;;;6.20;5.60;;;29.30;99.90;;;;;;4998995;28;20484;-82
2023/09/06 10:52:20;;;;;;;5.93;5.43;;;29.50;99.90;;;;;;4918528;29;20930;-83
2023/09/06 10:55:21;;;;;;;5.47;5.07;;;29.50;99.90;;;;;;4951327;28;20514;-81
2023/09/06 11:01:29;;;;;;;5.70;5.30;;;29.30;99.90;;;;;;4995608;28;20464;-78
2023/09/06 11:04:19;;;;;;;6.00;5.50;;;29.80;99.90;;;;;;4963474;28;20476;-79
2023/09/06 11:07:03;;;;;;;5.37;5.00;;;30.00;99.90;;;;;;4995893;28;20552;-80
2023/09/06 11:09:43;;;;;;;5.53;5.13;;;29.50;99.90;;;;;;4995869;28;20510;-82
2023/09/06 11:12:38;;;;;;;5.03;4.73;;;29.90;99.90;;;;;;4995956;28;20452;-81
2023/09/06 11:15:09;;;;;;;5.23;4.87;;;30.20;99.90;;;;;;4996732;28;20534;-80
2023/09/06 11:17:46;;;;;;;5.83;5.33;;;30.60;99.90;;;;;;4995154;28;20548;-79
2023/09/06 11:20:29;;;;;;;5.37;4.97;;;30.30;99.90;;;;;;4998284;28;20451;-82
2023/09/06 11:23:05;;;;;;;5.00;4.60;;;29.60;99.90;;;;;;4994843;28;20499;-79
2023/09/06 11:25:44;;;;;;;7.17;5.63;;;29.50;99.90;;;;;;4996175;28;20440;-79
2023/09/06 11:28:38;;;;;;;5.80;5.40;;;29.80;99.90;;;;;;4995858;28;20904;-81
2023/09/06 11:31:33;;;;;;;6.00;5.50;;;30.70;99.90;;;;;;4995891;28;20453;-80
2023/09/06 11:34:30;;;;;;;5.37;4.87;;;31.20;99.90;;;;;;4997040;28;20448;-82
2023/09/06 11:37:15;;;;;;;5.50;5.03;;;31.10;99.90;;;;;;4996513;28;20476;-81
2023/09/06 11:40:14;;;;;;;6.13;5.60;;;30.20;99.90;;;;;;4996283;28;20460;-81
2023/09/06 11:42:57;;;;;;;5.20;4.80;;;30.90;99.90;;;;;;4996829;28;20496;-82
2023/09/06 11:45:41;;;;;;;5.37;4.87;;;31.70;99.90;;;;;;4997922;28;20472;-82
2023/09/06 11:48:19;;;;;;;4.80;4.40;;;31.70;98.90;;;;;;5003499;28;20522;-81
2023/09/06 11:51:08;;;;;;;5.10;4.70;;;32.00;98.20;;;;;;5002398;28;20451;-79
2023/09/06 11:53:54;;;;;;;5.00;4.70;;;32.10;96.70;;;;;;5003644;28;20733;-82
2023/09/06 11:56:33;;;;;;;5.23;4.77;;;32.00;96.00;;;;;;5007961;28;20452;-82
2023/09/06 11:59:12;;;;;;;5.37;4.97;;;31.60;95.90;;;;;;5007160;28;20511;-79
2023/09/06 12:01:52;;;;;;;5.20;4.80;;;31.70;95.10;;;;;;5005478;28;20470;-80
2023/09/06 12:04:26;;;;;;;4.90;4.50;;;31.50;94.70;;;;;;5004989;28;20468;-81
2023/09/06 12:07:03;;;;;;;5.23;4.83;;;31.60;94.10;;;;;;5006214;28;20483;-81
2023/09/06 12:09:43;;;;;;;4.83;4.53;;;31.80;94.00;;;;;;5006339;28;20440;-80
2023/09/06 12:12:23;;;;;;;5.83;4.70;;;31.90;93.20;;;;;;5006963;28;20979;-83
2023/09/06 12:17:45;;;;;;;4.97;4.57;;;32.60;92.40;;;;;;4998044;28;20487;-79
2023/09/06 12:20:19;;;;;;;4.97;4.67;;;32.40;91.80;;;;;;5007310;28;20452;-79
2023/09/06 12:22:57;;;;;;;4.80;4.43;;;32.50;91.40;;;;;;5003270;28;20473;-81
2023/09/06 12:25:41;;;;;;;4.70;4.40;;;32.60;90.30;;;;;;4988054;28;20488;-81
2023/09/06 12:28:20;;;;;;;4.10;3.80;;;32.40;90.60;;;;;;4986550;28;20469;-82
2023/09/06 12:30:55;;;;;;;4.97;4.57;;;32.70;90.50;;;;;;4986885;28;20461;-82
2023/09/06 12:33:32;;;;;;;4.57;4.13;;;32.70;89.90;;;;;;4984969;28;20461;-79
2023/09/06 12:36:05;;;;;;;4.97;4.63;;;32.70;88.50;;;;;;4988765;28;20455;-79
2023/09/06 12:38:36;;;;;;;5.13;4.70;;;32.50;88.80;;;;;;4989174;28;20458;-82
2023/09/06 12:41:20;;;;;;;5.10;4.80;;;32.60;88.00;;;;;;4985809;28;20444;-81
2023/09/06 12:43:54;;;;;;;5.13;4.70;;;32.30;88.40;;;;;;4984895;28;20786;-80
2023/09/06 12:46:39;;;;;;;4.60;4.30;;;32.60;88.20;;;;;;4990514;28;20860;-81
2023/09/06 12:49:20;;;;;;;6.03;4.70;;;32.90;86.10;;;;;;4990567;28;20473;-81
2023/09/06 12:52:03;;;;;;;4.83;4.53;;;33.10;84.70;;;;;;4990257;28;20463;-82
2023/09/06 12:54:57;;;;;;;7.53;4.47;;;33.30;84.00;;;;;;4988891;28;20448;-82
2023/09/06 12:57:28;;;;;;;4.40;4.10;;;;;;;;;;4989178;28;20507;-81
2023/09/06 13:00:07;;;;;;;4.60;4.30;;;;;;;;;;4991541;28;20464;-79
2023/09/06 13:02:40;;;;;;;4.50;4.20;;;34.40;79.90;;;;;;4990756;28;20457;-80
2023/09/06 13:05:20;;;;;;;5.10;4.77;;;34.40;80.30;;;;;;4991925;28;20449;-81
2023/09/06 13:07:52;;;;;;;5.00;4.60;;;34.00;78.40;;;;;;4985859;28;20464;-79
2023/09/06 13:10:30;;;;;;;9.73;4.23;;;33.90;78.30;;;;;;4981191;28;20540;-83
2023/09/06 13:13:01;;;;;;;4.97;4.57;;;34.30;77.20;;;;;;4980564;28;20461;-80
2023/09/06 13:15:31;;;;;;;5.17;4.87;;;34.70;76.60;;;;;;4981011;28;20437;-82
2023/09/06 13:18:11;;;;;;;5.17;4.57;;;34.70;77.40;;;;;;4979019;28;20472;-81
2023/09/06 13:20:44;;;;;;;4.80;4.50;;;34.30;78.10;;;;;;4979074;28;20455;-80
2023/09/06 13:23:15;;;;;;;4.93;4.63;;;34.20;78.70;;;;;;4978927;28;20484;-81
2023/09/06 13:25:53;;;;;;;5.10;4.60;;;34.00;79.00;;;;;;4978457;28;21006;-83
2023/09/06 13:28:28;;;;;;;5.27;4.77;;;34.10;79.60;;;;;;4979737;28;20572;-82
2023/09/06 13:31:03;;;;;;;4.43;4.13;;;34.60;77.10;;;;;;4980693;28;20460;-81
2023/09/06 13:33:31;;;;;;;4.20;3.90;;;34.50;73.80;;;;;;4980790;28;20459;-81
2023/09/06 13:35:59;;;;;;;4.20;3.90;;;34.60;74.60;;;;;;4981985;28;20460;-80
2023/09/06 13:38:30;;;;;;;4.27;3.87;;;34.70;74.10;;;;;;4983937;28;20515;-78
2023/09/06 13:41:03;;;;;;;5.23;4.57;;;34.80;73.40;;;;;;4984797;28;20457;-79
2023/09/06 13:43:37;;;;;;;4.50;3.97;;;35.20;72.70;;;;;;4985125;28;20485;-81
2023/09/06 13:46:10;;;;;;;4.13;3.90;;;35.30;72.20;;;;;;4988317;28;20464;-83
2023/09/06 13:48:44;;;;;;;4.80;4.50;;;35.20;72.50;;;;;;4990553;28;20473;-82
2023/09/06 13:51:13;;;;;;;4.07;3.77;;;34.70;73.80;;;;;;4988654;28;20458;-81
2023/09/06 13:53:52;;;;;;;4.97;4.47;;;34.90;73.50;;;;;;4990357;28;20476;-81
2023/09/06 13:56:29;;;;;;;4.43;4.13;;;34.40;72.90;;;;;;4987191;28;20488;-82
2023/09/06 13:59:04;;;;;;;5.10;4.60;;;34.30;73.60;;;;;;4982361;28;20457;-80
2023/09/06 14:01:49;;;;;;;4.50;4.20;;;34.60;73.00;;;;;;4982185;28;20553;-81
2023/09/06 14:04:27;;;;;;;4.90;4.53;;;34.90;72.40;;;;;;4980487;28;20484;-83
2023/09/06 14:06:56;;;;;;;4.70;4.37;;;34.70;71.90;;;;;;4981753;28;20480;-81
2023/09/06 14:09:44;;;;;;;6.27;4.40;;;34.20;72.90;;;;;;4981436;28;20508;-79
2023/09/06 14:12:39;;;;;;;4.73;4.33;;;34.60;72.40;;;;;;4980738;28;20445;-81
2023/09/06 14:15:25;;;;;;;4.40;4.10;;;34.70;71.60;;;;;;4979458;28;20456;-82
2023/09/06 14:18:04;;;;;;;4.33;4.00;;;35.00;71.60;;;;;;4979888;28;20484;-82
2023/09/06 14:20:37;;;;;;;8.60;8.00;;;35.00;70.90;;;;;;4980459;28;20516;-83
2023/09/06 14:23:11;;;;;;;4.50;4.10;;;34.70;71.90;;;;;;4979473;28;20467;-80
2023/09/06 14:25:48;;;;;;;4.40;4.10;;;34.40;72.50;;;;;;4979773;28;20511;-81
2023/09/06 14:28:28;;;;;;;4.90;4.30;;;34.30;72.70;;;;;;4981735;28;20479;-83
2023/09/06 14:31:10;;;;;;;4.27;3.90;;;34.30;73.40;;;;;;4981055;28;20445;-80
2023/09/06 14:33:47;;;;;;;4.60;4.30;;;34.10;72.10;;;;;;4982048;28;20464;-82
2023/09/06 14:36:18;;;;;;;4.43;4.03;;;34.00;72.30;;;;;;4981414;28;20456;-81
2023/09/06 14:38:50;;;;;;;4.80;4.40;;;34.20;72.60;;;;;;4982466;28;20464;-81
2023/09/06 14:41:24;;;;;;;4.30;4.00;;;34.30;71.50;;;;;;4982982;28;20476;-82
2023/09/06 14:44:12;;;;;;;4.30;4.00;;;34.20;71.00;;;;;;4982378;28;20483;-83
2023/09/06 14:46:52;;;;;;;4.80;4.47;;;34.10;71.10;;;;;;4983580;28;20457;-82
2023/09/06 14:49:34;;;;;;;6.83;3.93;;;33.80;71.00;;;;;;4985985;28;20499;-82
2023/09/06 14:52:11;;;;;;;4.73;4.23;;;33.90;70.80;;;;;;4983735;28;20465;-81
2023/09/06 14:54:45;;;;;;;4.00;3.70;;;34.20;70.80;;;;;;4983932;28;20449;-80
2023/09/06 14:57:21;;;;;;;4.73;4.33;;;34.30;70.80;;;;;;4982379;28;20553;-83
2023/09/06 14:59:52;;;;;;;5.93;4.40;;;34.30;71.30;;;;;;4983327;28;20426;-82
2023/09/06 15:02:25;;;;;;;4.63;4.23;;;34.50;70.80;;;;;;4980716;28;20479;-81
2023/09/06 15:05:08;;;;;;;4.30;4.00;;;33.90;71.30;;;;;;4980110;28;20524;-80
2023/09/06 15:07:41;;;;;;;4.70;4.40;;;34.10;71.30;;;;;;4979062;28;21034;-81
2023/09/06 15:10:20;;;;;;;5.40;5.00;;;33.70;71.80;;;;;;4979374;28;20460;-82
2023/09/06 15:12:49;;;;;;;4.07;3.67;;;33.60;71.90;;;;;;4982247;28;20849;-81
2023/09/06 15:15:35;;;;;;;5.80;4.00;;;33.90;71.00;;;;;;4981852;28;20445;-81
2023/09/06 15:18:21;;;;;;;3.80;3.60;;;34.00;71.70;;;;;;4983519;28;20536;-81
2023/09/06 15:20:51;;;;;;;4.60;4.07;;;34.50;70.50;;;;;;4984390;28;20456;-81
2023/09/06 15:23:43;;;;;;;4.50;4.10;;;34.30;71.10;;;;;;4987783;28;20453;-83
2023/09/06 15:26:24;;;;;;;4.40;4.10;;;34.30;71.70;;;;;;4986399;28;20461;-81
2023/09/06 15:28:57;;;;;;;3.80;3.60;;;34.40;70.80;;;;;;4985708;28;20477;-81
2023/09/06 15:31:33;;;;;;;3.83;3.53;;;34.40;70.30;;;;;;4987162;28;20445;-81
2023/09/06 15:34:10;;;;;;;4.43;4.07;;;34.20;69.80;;;;;;4985432;28;20449;-81
2023/09/06 15:36:43;;;;;;;3.80;3.60;;;34.20;70.50;;;;;;4986519;28;20451;-81
2023/09/06 15:39:19;;;;;;;3.70;3.50;;;34.30;70.00;;;;;;4985117;28;20457;-82
2023/09/06 15:42:02;;;;;;;3.50;3.30;;;34.30;69.80;;;;;;4981792;28;20478;-81
2023/09/06 15:44:44;;;;;;;4.97;3.40;;;33.70;70.60;;;;;;4979055;28;20492;-83
2023/09/06 15:47:26;;;;;;;3.50;3.20;;;33.60;71.30;;;;;;4980444;28;20469;-84
2023/09/06 15:50:15;;;;;;;3.73;3.43;;;33.70;71.10;;;;;;4979437;28;20460;-84
2023/09/06 15:52:52;;;;;;;4.23;3.93;;;33.90;70.50;;;;;;4980829;28;20453;-83
2023/09/06 15:55:24;;;;;;;3.83;3.53;;;33.90;69.70;;;;;;4979391;28;20548;-81
2023/09/06 15:58:00;;;;;;;3.07;2.80;;;33.70;70.20;;;;;;4978894;28;20531;-82
2023/09/06 16:00:39;;;;;;;5.43;3.83;;;33.60;69.40;;;;;;4980896;28;20452;-81
2023/09/06 16:03:24;;;;;;;3.10;3.00;;;33.70;69.80;;;;;;4981319;28;20459;-83
2023/09/06 16:06:01;;;;;;;3.40;3.10;;;33.90;69.50;;;;;;4983612;28;20473;-82
2023/09/06 16:08:43;;;;;;;3.33;3.03;;;34.00;69.10;;;;;;4981704;28;21004;-83
2023/09/06 16:11:26;;;;;;;3.17;2.87;;;33.50;69.30;;;;;;4983095;28;20548;-82
2023/09/06 16:17:33;;;;;;;4.53;2.70;;;;;;;;;;4984177;28;20451;-82
2023/09/06 16:20:15;;;;;;;4.63;3.97;;;34.10;68.30;;;;;;4983342;28;20464;-81
2023/09/06 16:22:53;;;;;;;3.00;2.80;;;34.20;69.10;;;;;;4983775;28;20526;-83
2023/09/06 16:25:31;;;;;;;3.27;3.00;;;34.00;69.10;;;;;;5000724;28;20496;-81
2023/09/06 16:28:18;;;;;;;3.40;3.20;;;33.90;69.10;;;;;;4997254;28;20541;-80
2023/09/06 16:31:04;;;;;;;2.90;2.60;;;33.90;69.70;;;;;;4998295;28;20458;-83
2023/09/06 16:33:45;;;;;;;2.77;2.67;;;34.00;69.00;;;;;;4997492;28;20452;-82
2023/09/06 16:36:26;;;;;;;3.13;2.77;;;33.50;70.10;;;;;;4997272;28;20456;-82
2023/09/06 16:39:08;;;;;;;2.87;2.67;;;33.30;69.70;;;;;;4998647;28;20472;-84
2023/09/06 16:42:16;;;;;;;3.13;2.70;;;32.60;70.40;;;;;;5002642;28;20475;-82
2023/09/06 16:45:06;;;;;;;2.87;2.67;;;32.40;70.70;;;;;;5012355;28;20579;-80
2023/09/06 16:47:54;;;;;;;2.73;2.53;;;31.50;72.20;;;;;;5012571;28;20505;-79
2023/09/06 16:50:30;;;;;;;3.00;2.70;;;31.40;72.40;;;;;;5011461;28;20452;-81
2023/09/06 16:53:34;;;;;;;2.60;2.40;;;31.30;72.90;;;;;;5010702;28;20510;-82
2023/09/06 16:56:19;;;;;;;3.70;3.40;;;31.30;72.90;;;;;;5006521;28;20420;-80
2023/09/06 16:59:05;;;;;;;3.07;2.73;;;31.20;72.90;;;;;;5004229;28;20476;-80
2023/09/06 17:01:44;;;;;;;2.70;2.60;;;30.70;74.20;;;;;;5005906;28;20456;-80
2023/09/06 17:18:20;;;;;;;3.03;2.73;;;29.90;76.40;;;;;;4771182;30;20473;-80
2023/09/06 17:21:06;;;;;;;4.03;2.93;;;29.60;77.10;;;;;;4879608;29;20463;-80
2023/09/06 17:23:45;;;;;;;2.97;2.63;;;29.60;77.60;;;;;;4964832;29;20454;-81
2023/09/06 17:26:21;;;;;;;2.97;2.80;;;29.40;78.10;;;;;;4987810;28;20490;-81
2023/09/06 17:29:00;;;;;;;2.83;2.63;;;29.30;78.70;;;;;;5023454;28;20528;-82
2023/09/06 17:31:38;;;;;;;3.53;3.10;;;29.00;79.10;;;;;;5024362;28;20447;-80
2023/09/06 17:34:14;;;;;;;3.90;2.77;;;29.00;79.40;;;;;;5022633;28;20457;-81
2023/09/06 17:36:57;;;;;;;3.03;2.83;;;28.90;80.30;;;;;;5024270;28;20455;-79
2023/09/06 17:39:40;;;;;;;3.77;3.47;;;28.80;80.70;;;;;;5026018;28;20509;-80
2023/09/06 17:42:33;;;;;;;2.83;2.63;;;28.70;81.10;;;;;;5023826;28;21022;-81
2023/09/06 17:45:02;;;;;;;3.40;3.10;;;28.60;81.10;;;;;;5024186;28;20485;-80
2023/09/06 17:47:41;;;;;;;3.47;3.27;;;28.40;81.80;;;;;;5021996;28;20491;-81
2023/09/06 17:50:17;;;;;;;4.87;3.60;;;28.20;82.80;;;;;;5021443;28;20451;-82
2023/09/06 17:52:54;;;;;;;3.37;3.17;;;28.20;83.20;;;;;;5019521;28;20498;-81
2023/09/06 17:55:34;;;;;;;3.53;3.30;;;28.00;83.30;;;;;;5023539;28;20486;-80
2023/09/06 17:58:17;;;;;;;3.47;3.20;;;27.90;83.70;;;;;;5022741;28;20475;-81
2023/09/06 18:01:18;;;;;;;3.60;3.40;;;27.80;84.00;;;;;;5023740;28;20451;-80
2023/09/06 18:07:07;;;;;;;4.23;3.93;;;27.30;85.20;;;;;;5021604;28;20824;-80
2023/09/06 18:09:36;;;;;;;8.13;3.13;;;27.10;86.00;;;;;;5018627;28;20451;-81
2023/09/06 18:12:09;;;;;;;4.50;3.57;;;27.10;85.90;;;;;;5020751;28;20485;-83
2023/09/06 18:14:42;;;;;;;4.53;3.20;;;27.10;86.30;;;;;;5022893;28;20478;-80
2023/09/06 18:17:26;;;;;;;4.00;3.70;;;27.10;86.60;;;;;;5027233;28;20506;-81
2023/09/06 18:20:09;;;;;;;5.10;3.43;;;27.10;87.40;;;;;;5028677;28;20466;-80
2023/09/06 18:22:50;;;;;;;4.77;4.37;;;26.90;88.20;;;;;;5028422;28;20447;-81
2023/09/06 18:25:26;;;;;;;4.30;4.00;;;26.80;88.70;;;;;;5026969;28;20471;-81
2023/09/06 18:28:11;;;;;;;4.03;3.73;;;26.70;89.60;;;;;;5024275;28;20481;-80
2023/09/06 18:30:53;;;;;;;4.13;3.70;;;26.60;90.00;;;;;;5020562;28;20483;-81
2023/09/06 18:33:26;;;;;;;4.70;4.23;;;26.50;90.30;;;;;;5020625;28;20551;-80
2023/09/06 18:36:08;;;;;;;9.50;8.40;;;26.40;91.00;;;;;;5023237;28;20513;-83
2023/09/06 18:45:59;;;;;;;4.97;4.57;;;26.00;91.90;;;;;;4895184;28;20935;-82
2023/09/06 18:48:30;;;;;;;4.87;4.37;;;25.80;92.30;;;;;;5000592;28;20504;-82
2023/09/06 18:51:30;;;;;;;4.47;3.90;;;25.80;92.30;;;;;;5001014;28;20448;-81
2023/09/06 18:54:32;;;;;;;4.63;4.27;;;25.70;92.60;;;;;;4903740;29;20472;-82
2023/09/06 18:57:16;;;;;;;;;;;;;;;;;;;;;
2023/09/06 18:59:57;;;;;;;5.03;4.63;;;25.50;93.00;;;;;;5007244;28;20440;-82
2023/09/06 19:02:29;;;;;;;5.43;4.57;;;25.40;93.30;;;;;;5009878;28;20528;-80
2023/09/06 19:05:01;;;;;;;4.40;4.00;;;25.40;93.60;;;;;;5008905;28;20504;-80
2023/09/06 19:07:33;;;;;;;5.97;4.60;;;25.30;94.00;;;;;;5005461;28;20477;-81
2023/09/06 19:10:15;;;;;;;5.23;4.77;;;25.20;94.60;;;;;;5002175;28;20467;-82
2023/09/06 19:13:03;;;;;;;6.10;4.90;;;25.20;94.70;;;;;;5004932;28;20545;-81
2023/09/06 19:15:38;;;;;;;4.93;4.53;;;25.00;94.90;;;;;;5002707;28;20441;-81
2023/09/06 19:18:11;;;;;;;8.10;7.30;;;24.90;95.30;;;;;;5001175;28;20480;-82
2023/09/06 19:20:42;;;;;;;8.10;6.77;;;24.80;95.70;;;;;;5000944;28;21011;-80
2023/09/06 19:23:16;;;;;;;5.90;4.57;;;24.70;96.00;;;;;;4998883;28;20456;-82
2023/09/06 19:26:04;;;;;;;4.30;3.90;;;24.60;96.50;;;;;;4998246;28;20508;-82
2023/09/06 19:29:04;;;;;;;5.83;5.07;;;24.50;96.80;;;;;;4998484;28;20488;-81
2023/09/06 19:31:56;;;;;;;;;;;;;;;;;;;;;
2023/09/06 19:34:51;;;;;;;4.70;4.20;;;24.40;97.70;;;;;;4996197;28;20444;-81
2023/09/06 19:37:46;;;;;;;4.50;4.10;;;24.10;98.50;;;;;;4996436;28;20507;-83
2023/09/06 19:40:17;;;;;;;4.83;4.27;;;24.00;99.10;;;;;;4997939;28;20444;-82
2023/09/06 19:43:15;;;;;;;5.07;4.67;;;23.90;99.70;;;;;;4998214;28;20456;-80
2023/09/06 23:45:30;;;;;;;9.23;7.17;;;18.40;99.90;;;;;;4971765;28;20969;-79
2023/09/06 23:48:12;;;;;;;7.53;6.93;;;18.40;99.90;;;;;;5016384;28;20467;-79
2023/09/06 23:51:25;;;;;;;8.00;7.20;;;18.30;99.90;;;;;;5016432;28;20458;-79
2023/09/06 23:54:14;;;;;;;;;;;;;;;;;;;;;
2023/09/06 23:57:17;;;;;;;8.60;7.80;;;18.20;99.90;;;;;;5016660;28;20518;-79
